createdAt,value
2022-10-01T00:01:48.840Z,7.80
2022-10-01T00:04:38.195Z,6.03
2022-10-01T00:07:24.923Z,5.73
2022-10-01T00:10:12.711Z,6.17
2022-10-01T00:12:59.259Z,5.73
2022-10-01T00:15:46.268Z,6.97
2022-10-01T00:18:35.557Z,6.60
2022-10-01T00:21:28.026Z,6.13
2022-10-01T00:24:14.197Z,5.60
2022-10-01T00:27:00.576Z,5.80
2022-10-01T00:29:47.191Z,5.20
2022-10-01T00:32:35.603Z,5.53
2022-10-01T00:35:22.623Z,5.30
2022-10-01T00:38:09.026Z,5.33
2022-10-01T00:40:55.616Z,5.30
2022-10-01T00:43:49.690Z,4.83
2022-10-01T00:46:43.190Z,4.77
2022-10-01T00:49:31.638Z,5.13
2022-10-01T00:52:24.744Z,5.30
2022-10-01T00:55:15.223Z,4.53
2022-10-01T00:58:03.448Z,6.63
2022-10-01T01:00:51.527Z,5.17
2022-10-01T01:03:38.736Z,4.20
2022-10-01T01:06:25.084Z,4.80
2022-10-01T01:09:11.438Z,4.50
2022-10-01T01:12:14.805Z,4.37
2022-10-01T01:15:30.084Z,4.03
2022-10-01T01:18:25.991Z,4.37
2022-10-01T01:21:15.259Z,4.37
2022-10-01T01:24:13.879Z,3.67
2022-10-01T01:27:07.718Z,4.10
2022-10-01T01:30:06.565Z,4.50
2022-10-01T01:33:01.347Z,4.23
2022-10-01T01:36:01.017Z,4.90
2022-10-01T01:38:51.921Z,3.40
2022-10-01T01:41:48.240Z,4.57
2022-10-01T01:44:39.805Z,3.87
2022-10-01T01:47:30.453Z,3.63
2022-10-01T01:50:17.657Z,3.30
2022-10-01T01:53:04.165Z,3.70
2022-10-01T01:55:50.674Z,3.00
2022-10-01T01:58:38.480Z,4.37
2022-10-01T02:01:40.050Z,3.70
2022-10-01T02:04:32.040Z,3.53
2022-10-01T02:07:31.947Z,3.30
2022-10-01T02:10:51.999Z,3.50
2022-10-01T02:14:00.193Z,3.20
2022-10-01T02:17:01.508Z,3.40
2022-10-01T02:19:51.459Z,3.00
2022-10-01T02:22:47.177Z,2.80
2022-10-01T02:25:39.576Z,2.77
2022-10-01T02:28:26.101Z,2.77
2022-10-01T02:31:15.552Z,3.30
2022-10-01T02:34:04.410Z,3.37
2022-10-01T02:36:52.684Z,2.87
2022-10-01T02:39:41.646Z,2.80
2022-10-01T02:42:29.783Z,2.60
2022-10-01T02:45:19.585Z,2.50
2022-10-01T02:48:11.868Z,2.93
2022-10-01T02:51:15.783Z,2.70
2022-10-01T02:54:11.002Z,2.53
2022-10-01T02:57:18.262Z,2.70
2022-10-01T03:00:18.850Z,2.53
2022-10-01T03:03:05.115Z,2.80
2022-10-01T03:05:51.767Z,2.67
2022-10-01T03:08:38.190Z,2.90
2022-10-01T03:11:24.371Z,2.80
2022-10-01T03:14:11.151Z,2.50
2022-10-01T03:16:57.546Z,2.50
2022-10-01T03:19:44.036Z,2.47
2022-10-01T03:22:30.455Z,2.30
2022-10-01T03:25:17.260Z,2.53
2022-10-01T03:28:03.805Z,2.27
2022-10-01T03:30:50.544Z,2.40
2022-10-01T03:33:37.150Z,2.90
2022-10-01T03:36:23.726Z,1.90
2022-10-01T03:39:10.071Z,2.37
2022-10-01T03:41:56.293Z,2.73
2022-10-01T03:44:43.262Z,2.30
2022-10-01T03:47:29.489Z,1.93
2022-10-01T03:50:15.795Z,2.00
2022-10-01T03:53:02.157Z,1.80
2022-10-01T03:55:48.809Z,1.60
2022-10-01T03:58:34.999Z,1.77
2022-10-01T04:01:21.458Z,1.70
2022-10-01T04:04:08.065Z,1.57
2022-10-01T04:06:54.593Z,1.87
2022-10-01T04:09:41.315Z,2.17
2022-10-01T04:12:28.262Z,1.60
2022-10-01T04:15:15.237Z,1.77
2022-10-01T04:18:06.098Z,1.90
2022-10-01T04:20:52.668Z,1.50
2022-10-01T04:23:38.873Z,1.67
2022-10-01T04:26:25.137Z,1.60
2022-10-01T04:29:11.362Z,1.60
2022-10-01T04:31:58.274Z,1.50
2022-10-01T04:34:53.687Z,1.63
2022-10-01T04:37:40.229Z,1.60
2022-10-01T04:40:26.546Z,1.70
2022-10-01T04:43:13.265Z,1.50
2022-10-01T04:45:59.820Z,1.50
2022-10-01T04:48:48.046Z,1.50
2022-10-01T04:51:34.646Z,1.67
2022-10-01T04:54:21.102Z,1.70
2022-10-01T04:57:07.379Z,1.50
2022-10-01T04:59:53.648Z,1.60
2022-10-01T05:02:40.666Z,1.60
2022-10-01T05:05:29.090Z,1.63
2022-10-01T05:08:15.898Z,1.57
2022-10-01T05:11:02.777Z,1.73
2022-10-01T05:13:49.296Z,1.67
2022-10-01T05:16:35.819Z,1.60
2022-10-01T05:19:25.237Z,1.70
2022-10-01T05:22:14.952Z,2.20
2022-10-01T05:25:01.398Z,2.00
2022-10-01T05:27:47.891Z,1.60
2022-10-01T05:30:34.639Z,2.07
2022-10-01T05:33:20.814Z,1.93
2022-10-01T05:36:07.499Z,1.60
2022-10-01T05:38:53.813Z,1.83
2022-10-01T05:41:40.926Z,1.33
2022-10-01T05:44:27.207Z,1.40
2022-10-01T05:47:14.699Z,1.40
2022-10-01T05:50:00.799Z,1.60
2022-10-01T05:52:53.354Z,1.70
2022-10-01T05:55:39.949Z,1.60
2022-10-01T05:58:26.520Z,1.40
2022-10-01T06:01:13.385Z,1.60
2022-10-01T06:03:59.991Z,1.57
2022-10-01T06:06:46.827Z,1.80
2022-10-01T06:09:32.904Z,1.67
2022-10-01T06:12:20.067Z,1.60
2022-10-01T06:15:07.223Z,1.60
2022-10-01T06:17:53.419Z,2.03
2022-10-01T06:20:40.988Z,1.73
2022-10-01T06:23:27.892Z,1.40
2022-10-01T06:26:14.431Z,1.30
2022-10-01T06:29:02.631Z,1.60
2022-10-01T06:31:49.291Z,2.00
2022-10-01T06:34:36.065Z,1.80
2022-10-01T06:37:22.484Z,1.70
2022-10-01T06:40:09.455Z,2.00
2022-10-01T06:42:58.699Z,2.10
2022-10-01T06:45:44.895Z,3.23
2022-10-01T06:48:32.334Z,2.43
2022-10-01T06:51:38.906Z,2.87
2022-10-01T06:54:27.263Z,2.00
2022-10-01T06:57:13.751Z,2.30
2022-10-01T07:00:00.116Z,2.00
2022-10-01T07:02:46.587Z,2.20
2022-10-01T07:05:32.938Z,2.00
2022-10-01T07:08:19.968Z,2.20
2022-10-01T07:11:06.518Z,1.90
2022-10-01T07:13:54.738Z,2.40
2022-10-01T07:16:41.361Z,2.13
2022-10-01T07:19:28.006Z,2.10
2022-10-01T07:22:14.341Z,2.10
2022-10-01T07:25:00.588Z,2.30
2022-10-01T07:27:46.974Z,2.43
2022-10-01T07:30:34.184Z,2.07
2022-10-01T07:33:20.838Z,2.37
2022-10-01T07:36:10.613Z,2.30
2022-10-01T07:38:59.884Z,2.20
2022-10-01T07:41:46.095Z,1.90
2022-10-01T07:44:33.131Z,1.93
2022-10-01T07:47:19.833Z,1.80
2022-10-01T07:50:07.016Z,2.10
2022-10-01T07:52:55.338Z,2.00
2022-10-01T07:55:42.017Z,1.83
2022-10-01T07:58:28.364Z,3.40
2022-10-01T08:01:15.639Z,2.23
2022-10-01T08:04:22.053Z,2.20
2022-10-01T08:07:08.677Z,1.73
2022-10-01T08:09:56.166Z,1.70
2022-10-01T08:12:42.735Z,1.90
2022-10-01T08:15:29.830Z,1.97
2022-10-01T08:18:16.342Z,1.90
2022-10-01T08:21:03.138Z,2.20
2022-10-01T08:23:49.360Z,2.00
2022-10-01T08:26:35.965Z,2.30
2022-10-01T08:29:22.477Z,2.37
2022-10-01T08:32:10.455Z,2.20
2022-10-01T08:35:01.869Z,2.50
2022-10-01T08:37:48.677Z,2.03
2022-10-01T08:40:40.976Z,2.40
2022-10-01T08:43:41.409Z,1.97
2022-10-01T08:46:35.004Z,2.33
2022-10-01T08:49:47.679Z,1.93
2022-10-01T08:52:40.874Z,2.03
2022-10-01T08:55:31.820Z,2.20
2022-10-01T08:58:28.832Z,1.83
2022-10-01T09:01:15.551Z,2.00
2022-10-01T09:04:02.461Z,1.80
2022-10-01T09:06:54.788Z,1.80
2022-10-01T09:09:45.323Z,1.43
2022-10-01T09:12:48.276Z,1.70
2022-10-01T09:15:47.121Z,1.70
2022-10-01T09:18:49.611Z,1.70
2022-10-01T09:21:59.134Z,1.60
2022-10-01T09:25:10.440Z,1.70
2022-10-01T09:28:16.890Z,1.40
2022-10-01T09:31:19.712Z,1.73
2022-10-01T09:34:14.422Z,1.73
2022-10-01T09:37:14.705Z,1.50
2022-10-01T09:40:19.900Z,1.40
2022-10-01T09:43:08.193Z,0.90
2022-10-01T09:45:54.710Z,1.43
2022-10-01T09:49:03.275Z,1.30
2022-10-01T09:51:55.171Z,2.40
2022-10-01T09:54:47.166Z,1.53
2022-10-01T09:57:42.834Z,1.47
2022-10-01T10:00:29.927Z,1.50
2022-10-01T10:03:52.669Z,1.50
2022-10-01T10:06:39.454Z,1.30
2022-10-01T10:09:31.472Z,1.40
2022-10-01T10:12:31.853Z,2.00
2022-10-01T10:15:22.503Z,2.43
2022-10-01T10:18:21.586Z,2.63
2022-10-01T10:21:16.565Z,1.83
2022-10-01T10:24:06.507Z,1.40
2022-10-01T10:26:56.404Z,1.03
2022-10-01T10:29:42.633Z,0.90
2022-10-01T10:32:29.308Z,1.20
2022-10-01T10:35:19.310Z,1.30
2022-10-01T10:38:06.381Z,1.10
2022-10-01T10:40:52.713Z,1.40
2022-10-01T10:43:39.529Z,1.07
2022-10-01T10:46:42.841Z,0.73
2022-10-01T10:49:53.708Z,0.80
2022-10-01T10:52:44.984Z,0.70
2022-10-01T10:55:32.008Z,0.73
2022-10-01T10:58:19.144Z,0.67
2022-10-01T11:01:13.743Z,0.63
2022-10-01T11:04:01.475Z,1.10
2022-10-01T11:06:58.915Z,0.90
2022-10-01T11:09:54.697Z,0.60
2022-10-01T11:13:06.602Z,0.70
2022-10-01T11:16:28.724Z,0.60
2022-10-01T11:19:38.405Z,0.73
2022-10-01T11:22:52.504Z,1.13
2022-10-01T11:25:52.088Z,1.37
2022-10-01T11:28:53.232Z,0.83
2022-10-01T11:32:10.188Z,0.77
2022-10-01T11:35:42.341Z,0.80
2022-10-01T11:38:45.812Z,2.37
2022-10-01T11:41:38.930Z,0.90
2022-10-01T11:44:51.038Z,1.10
2022-10-01T11:47:44.262Z,1.00
2022-10-01T11:50:39.055Z,0.87
2022-10-01T11:53:35.525Z,0.60
2022-10-01T11:56:53.295Z,0.60
2022-10-01T11:59:42.418Z,1.77
2022-10-01T12:02:40.650Z,1.00
2022-10-01T12:05:31.267Z,1.40
2022-10-01T12:08:25.290Z,1.50
2022-10-01T12:11:37.197Z,1.53
2022-10-01T12:14:31.375Z,1.60
2022-10-01T12:17:32.474Z,1.10
2022-10-01T12:20:43.402Z,1.40
2022-10-01T12:23:36.019Z,3.00
2022-10-01T12:26:58.530Z,0.83
2022-10-01T12:30:01.464Z,1.10
2022-10-01T12:33:20.078Z,0.80
2022-10-01T12:36:13.104Z,0.90
2022-10-01T12:39:24.528Z,1.17
2022-10-01T12:42:31.877Z,0.63
2022-10-01T12:45:36.753Z,0.50
2022-10-01T12:48:29.235Z,0.60
2022-10-01T12:51:30.970Z,0.70
2022-10-01T12:54:41.781Z,0.93
2022-10-01T12:57:39.257Z,0.60
2022-10-01T13:00:31.944Z,0.77
2022-10-01T13:03:24.339Z,0.90
2022-10-01T13:06:32.893Z,0.80
2022-10-01T13:10:07.763Z,1.00
2022-10-01T13:13:11.414Z,0.83
2022-10-01T13:16:09.767Z,0.90
2022-10-01T13:19:21.511Z,1.10
2022-10-01T13:22:23.175Z,0.90
2022-10-01T13:25:18.759Z,0.97
2022-10-01T13:28:40.618Z,1.07
2022-10-01T13:31:37.975Z,2.53
2022-10-01T13:34:25.849Z,1.20
2022-10-01T13:37:35.487Z,1.00
2022-10-01T13:40:24.867Z,0.80
2022-10-01T13:43:31.866Z,1.23
2022-10-01T13:46:18.090Z,0.70
2022-10-01T13:49:25.291Z,0.80
2022-10-01T13:52:20.268Z,2.07
2022-10-01T13:55:07.170Z,0.90
2022-10-01T13:58:19.535Z,1.27
2022-10-01T14:01:22.926Z,0.90
2022-10-01T14:04:27.986Z,0.90
2022-10-01T14:07:21.947Z,0.57
2022-10-01T14:10:14.115Z,1.50
2022-10-01T14:13:42.264Z,1.20
2022-10-01T14:16:31.667Z,1.20
2022-10-01T14:19:20.626Z,1.00
2022-10-01T14:22:16.114Z,1.17
2022-10-01T14:25:08.763Z,1.20
2022-10-01T14:28:03.296Z,1.43
2022-10-01T14:31:04.737Z,0.80
2022-10-01T14:33:59.610Z,0.90
2022-10-01T14:36:49.510Z,7.23
2022-10-01T14:39:35.731Z,3.80
2022-10-01T14:42:22.076Z,2.17
2022-10-01T14:45:18.964Z,2.80
2022-10-01T14:48:07.157Z,4.30
2022-10-01T14:50:56.124Z,7.27
2022-10-01T14:53:43.578Z,2.63
2022-10-01T14:56:30.198Z,9.03
2022-10-01T14:59:42.077Z,12.00
2022-10-01T15:02:29.527Z,2.63
2022-10-01T15:05:21.753Z,2.00
2022-10-01T15:08:11.398Z,1.90
2022-10-01T15:11:02.088Z,2.13
2022-10-01T15:13:50.898Z,4.17
2022-10-01T15:16:37.799Z,2.60
2022-10-01T15:19:24.852Z,1.00
2022-10-01T15:22:12.932Z,1.00
2022-10-01T15:25:01.578Z,1.07
2022-10-01T15:27:49.201Z,1.30
2022-10-01T15:30:36.781Z,0.93
2022-10-01T15:33:29.524Z,1.33
2022-10-01T15:36:18.384Z,1.00
2022-10-01T15:39:31.373Z,1.03
2022-10-01T15:42:26.992Z,1.13
2022-10-01T15:45:25.890Z,1.37
2022-10-01T15:48:28.518Z,1.93
2022-10-01T15:51:20.415Z,1.33
2022-10-01T15:54:08.759Z,1.70
2022-10-01T15:56:55.532Z,1.07
2022-10-01T15:59:42.335Z,1.17
2022-10-01T16:02:31.726Z,0.80
2022-10-01T16:05:21.493Z,1.53
2022-10-01T16:08:21.590Z,1.00
2022-10-01T16:11:13.836Z,1.37
2022-10-01T16:14:27.796Z,1.30
2022-10-01T16:17:17.354Z,1.50
2022-10-01T16:20:15.924Z,1.40
2022-10-01T16:23:39.817Z,1.17
2022-10-01T16:26:39.115Z,1.90
2022-10-01T16:29:25.875Z,1.10
2022-10-01T16:32:14.347Z,1.67
2022-10-01T16:35:20.999Z,1.07
2022-10-01T16:38:09.025Z,1.20
2022-10-01T16:40:55.290Z,1.17
2022-10-01T16:43:41.512Z,1.03
2022-10-01T16:46:27.778Z,1.53
2022-10-01T16:49:15.386Z,0.90
2022-10-01T16:52:02.463Z,1.00
2022-10-01T16:54:48.847Z,0.77
2022-10-01T16:57:35.215Z,0.90
2022-10-01T17:00:24.192Z,1.20
2022-10-01T17:03:19.694Z,0.80
2022-10-01T17:06:06.414Z,1.27
2022-10-01T17:08:52.945Z,2.10
2022-10-01T17:11:40.824Z,1.40
2022-10-01T17:14:27.780Z,1.27
2022-10-01T17:17:14.244Z,1.23
2022-10-01T17:20:00.469Z,1.03
2022-10-01T17:22:46.811Z,1.20
2022-10-01T17:25:35.602Z,2.20
2022-10-01T17:28:22.968Z,1.50
2022-10-01T17:31:11.343Z,1.30
2022-10-01T17:34:00.951Z,1.60
2022-10-01T17:36:47.160Z,2.90
2022-10-01T17:39:34.649Z,1.77
2022-10-01T17:42:22.335Z,1.90
2022-10-01T17:45:11.306Z,1.23
2022-10-01T17:47:57.723Z,1.40
2022-10-01T17:50:44.688Z,1.00
2022-10-01T17:53:39.704Z,2.67
2022-10-01T17:56:32.431Z,1.10
2022-10-01T17:59:19.055Z,1.20
2022-10-01T18:02:23.529Z,1.10
2022-10-01T18:05:14.915Z,1.57
2022-10-01T18:08:01.581Z,1.17
2022-10-01T18:10:47.707Z,1.30
2022-10-01T18:13:34.884Z,1.60
2022-10-01T18:16:22.148Z,1.30
2022-10-01T18:22:15.742Z,1.60
2022-10-01T18:25:03.518Z,1.10
2022-10-01T18:27:50.210Z,1.63
2022-10-01T18:30:36.847Z,1.40
2022-10-01T18:33:23.340Z,1.30
2022-10-01T18:36:24.642Z,1.40
2022-10-01T18:39:21.014Z,1.60
2022-10-01T18:42:37.690Z,2.63
2022-10-01T18:45:33.233Z,1.57
2022-10-01T18:48:47.536Z,0.90
2022-10-01T18:51:51.022Z,1.20
2022-10-01T18:54:43.280Z,1.20
2022-10-01T18:57:54.647Z,1.70
2022-10-01T19:00:55.961Z,1.17
2022-10-01T19:04:13.287Z,1.57
2022-10-01T19:07:18.257Z,2.90
2022-10-01T19:10:13.900Z,1.10
2022-10-01T19:13:20.980Z,1.20
2022-10-01T19:16:27.055Z,1.27
2022-10-01T19:19:22.360Z,1.13
2022-10-01T19:22:27.657Z,1.60
2022-10-01T19:25:39.535Z,1.63
2022-10-01T19:28:29.180Z,1.80
2022-10-01T19:31:48.680Z,1.20
2022-10-01T19:34:41.198Z,1.40
2022-10-01T19:37:42.448Z,2.47
2022-10-01T19:40:37.423Z,1.70
2022-10-01T19:43:36.838Z,3.13
2022-10-01T19:46:36.070Z,2.27
2022-10-01T19:49:33.732Z,1.93
2022-10-01T19:52:24.114Z,2.10
2022-10-01T19:55:15.851Z,2.40
2022-10-01T19:58:05.934Z,2.60
2022-10-01T20:00:57.520Z,2.10
2022-10-01T20:03:51.799Z,1.70
2022-10-01T20:06:43.316Z,2.07
2022-10-01T20:09:45.588Z,1.70
2022-10-01T20:12:48.678Z,1.90
2022-10-01T20:15:44.828Z,1.80
2022-10-01T20:18:57.065Z,1.47
2022-10-01T20:22:13.615Z,2.03
2022-10-01T20:25:03.667Z,1.77
2022-10-01T20:28:12.068Z,1.73
2022-10-01T20:31:25.013Z,1.40
2022-10-01T20:34:33.177Z,1.50
2022-10-01T20:37:52.278Z,2.33
2022-10-01T20:40:53.981Z,1.77
2022-10-01T20:43:49.073Z,2.20
2022-10-01T20:46:44.279Z,2.20
2022-10-01T20:49:43.412Z,2.00
2022-10-01T20:52:54.523Z,1.80
2022-10-01T20:55:47.394Z,1.90
2022-10-01T20:58:44.346Z,1.87
2022-10-01T21:01:35.832Z,1.60
2022-10-01T21:04:28.084Z,1.80
2022-10-01T21:07:39.183Z,1.60
2022-10-01T21:10:36.392Z,2.27
2022-10-01T21:13:31.907Z,2.00
2022-10-01T21:16:54.451Z,1.67
2022-10-01T21:19:56.019Z,1.60
2022-10-01T21:22:57.738Z,1.50
2022-10-01T21:25:47.184Z,1.53
2022-10-01T21:28:45.736Z,1.60
2022-10-01T21:31:56.605Z,1.73
2022-10-01T21:35:07.205Z,1.37
2022-10-01T21:38:11.254Z,1.77
2022-10-01T21:41:27.799Z,1.77
2022-10-01T21:44:19.968Z,1.80
2022-10-01T21:47:42.303Z,1.77
2022-10-01T21:50:47.056Z,1.53
2022-10-01T21:53:32.995Z,1.70
2022-10-01T21:56:54.944Z,1.90
2022-10-01T21:59:56.878Z,1.70
2022-10-01T22:02:50.947Z,1.83
2022-10-01T22:06:15.022Z,1.77
2022-10-01T22:09:13.045Z,1.50
2022-10-01T22:12:02.005Z,1.70
2022-10-01T22:14:50.429Z,2.00
2022-10-01T22:17:39.473Z,1.57
2022-10-01T22:20:32.726Z,1.67
2022-10-01T22:23:20.050Z,3.67
2022-10-01T22:26:14.177Z,1.57
2022-10-01T22:29:02.818Z,1.70
2022-10-01T22:31:54.523Z,1.43
2022-10-01T22:34:47.938Z,1.97
2022-10-01T22:37:40.218Z,1.30
2022-10-01T22:40:35.891Z,1.70
2022-10-01T22:43:22.214Z,1.57
2022-10-01T22:46:44.974Z,1.60
2022-10-01T22:50:00.407Z,1.53
2022-10-01T22:53:07.145Z,1.60
2022-10-01T22:55:57.764Z,1.40
2022-10-01T22:59:15.679Z,2.97
2022-10-01T23:02:22.238Z,1.67
2022-10-01T23:05:26.186Z,2.17
2022-10-01T23:08:30.979Z,1.30
2022-10-01T23:11:29.721Z,1.33
2022-10-01T23:14:35.101Z,2.20
2022-10-01T23:17:45.069Z,1.43
2022-10-01T23:20:46.008Z,1.90
2022-10-01T23:23:33.532Z,1.50
2022-10-01T23:26:34.360Z,1.67
2022-10-01T23:29:35.894Z,1.63
2022-10-01T23:32:40.837Z,1.43
2022-10-01T23:35:48.943Z,1.40
2022-10-01T23:38:47.550Z,1.77
2022-10-01T23:41:43.376Z,2.03
2022-10-01T23:44:42.902Z,1.50
2022-10-01T23:47:38.175Z,1.70
2022-10-01T23:51:06.831Z,1.60
2022-10-01T23:54:14.499Z,1.60
2022-10-01T23:57:10.063Z,1.40
